Time;durP1;ratioP1;P1;durP2;ratioP2;P2;SDS_P1;SDS_P2;PMS_P1;PMS_P2;Temp;Humidity;BMP_temperature;BMP_pressure;BME280_temperature;BME280_humidity;BME280_pressure;Samples;Min_cycle;Max_cycle;Signal;HPM_P1;HPM_P2
2023/02/13 00:00:35;;;;;;;60.13;41.33;;;;;;;-2.28;91.77;97448.13;5058063;28;20037;-63
2023/02/13 00:03:00;;;;;;;58.10;41.90;;;;;;;-2.32;91.28;97447.31;5045771;28;20059;-70
2023/02/13 00:05:25;;;;;;;54.15;37.63;;;;;;;-2.32;90.85;97451.63;5062138;28;20040;-62
2023/02/13 00:07:51;;;;;;;49.65;36.60;;;;;;;-2.33;91.92;97450.75;5064413;28;20123;-67
2023/02/13 00:10:16;;;;;;;46.63;33.83;;;;;;;-2.33;92.75;97453.34;5062576;28;20041;-67
2023/02/13 00:12:42;;;;;;;52.70;38.28;;;;;;;-2.35;92.69;97459.41;5061588;28;20041;-66
2023/02/13 00:15:08;;;;;;;50.58;37.28;;;;;;;-2.37;92.38;97463.72;5056837;28;20016;-67
2023/02/13 00:17:33;;;;;;;45.33;34.38;;;;;;;-2.40;92.67;97456.88;5059383;28;20029;-66
2023/02/13 00:19:58;;;;;;;49.30;35.80;;;;;;;-2.43;92.86;97458.63;5056340;28;20039;-66
2023/02/13 00:22:24;;;;;;;47.65;35.40;;;;;;;-2.46;93.47;97454.38;5062238;28;20096;-70
2023/02/13 00:24:49;;;;;;;50.38;32.35;;;;;;;-2.48;92.61;97454.38;5063153;28;20025;-68
2023/02/13 00:27:15;;;;;;;44.72;31.85;;;;;;;-2.47;92.54;97457.81;5055351;28;20033;-75
2023/02/13 00:29:40;;;;;;;44.08;31.15;;;;;;;-2.48;92.97;97459.53;5061111;28;21358;-75
2023/02/13 00:32:06;;;;;;;43.67;31.17;;;;;;;-2.50;92.49;97463.88;5063248;28;20031;-75
2023/02/13 00:34:31;;;;;;;39.85;31.17;;;;;;;-2.49;92.15;97457.00;5061787;28;20411;-74
2023/02/13 00:36:56;;;;;;;41.08;30.00;;;;;;;-2.48;93.19;97459.53;5061584;28;20090;-75
2023/02/13 00:39:22;;;;;;;40.75;30.67;;;;;;;-2.53;93.68;97461.31;5065953;28;20108;-75
2023/02/13 00:41:47;;;;;;;38.60;29.20;;;;;;;-2.55;93.42;97464.78;5063606;28;20106;-75
2023/02/13 00:44:12;;;;;;;38.10;29.45;;;;;;;-2.52;93.32;97464.78;5060809;28;20071;-69
2023/02/13 00:46:38;;;;;;;37.63;29.23;;;;;;;-2.54;93.19;97463.91;5060856;28;20057;-66
2023/02/13 00:49:04;;;;;;;36.92;27.80;;;;;;;-2.52;93.11;97460.44;5061167;28;20060;-66
2023/02/13 00:51:29;;;;;;;34.83;26.63;;;;;;;-2.51;93.62;97456.16;5058807;28;20064;-66
2023/02/13 00:53:54;;;;;;;38.08;27.08;;;;;;;-2.54;93.60;97464.78;5066114;28;20147;-66
2023/02/13 00:56:20;;;;;;;35.38;26.80;;;;;;;-2.57;94.11;97458.78;5056425;28;20417;-66
2023/02/13 00:58:45;;;;;;;35.22;27.05;;;;;;;-2.61;94.19;97464.00;5061987;28;20550;-66
2023/02/13 01:01:11;;;;;;;34.85;26.25;;;;;;;-2.61;93.88;97463.16;5058553;28;20044;-63
2023/02/13 01:03:36;;;;;;;37.70;26.90;;;;;;;-2.60;94.10;97459.69;5055196;28;20033;-66
2023/02/13 01:06:01;;;;;;;32.67;26.83;;;;;;;-2.63;95.04;97458.00;5057356;28;20033;-69
2023/02/13 01:08:27;;;;;;;32.05;25.40;;;;;;;-2.65;94.11;97466.63;5051100;28;20099;-69
2023/02/13 01:10:53;;;;;;;35.55;25.48;;;;;;;-2.65;94.18;97467.47;5052893;28;20561;-69
2023/02/13 01:13:19;;;;;;;32.85;24.70;;;;;;;-2.68;94.67;97467.53;5056628;28;20036;-69
2023/02/13 01:15:45;;;;;;;30.77;23.42;;;;;;;-2.72;94.59;97473.59;5048955;28;20033;-69
2023/02/13 01:18:15;;;;;;;30.38;24.20;;;;;;;-2.73;94.72;97461.56;5053290;28;20033;-69
2023/02/13 01:20:42;;;;;;;28.00;22.20;;;;;;;-2.73;94.80;97466.72;5064334;28;20040;-65
2023/02/13 01:23:09;;;;;;;28.92;22.45;;;;;;;-2.75;95.28;97469.31;5063048;28;20768;-66
2023/02/13 01:25:34;;;;;;;27.27;21.17;;;;;;;-2.74;94.75;97472.75;5065490;28;20518;-68
2023/02/13 01:28:00;;;;;;;29.45;22.05;;;;;;;-2.74;94.19;97478.75;5068915;28;20040;-67
2023/02/13 01:30:25;;;;;;;24.58;19.25;;;;;;;-2.76;94.99;97477.06;5066334;28;20621;-67
2023/02/13 01:32:51;;;;;;;25.75;21.00;;;;;;;-2.79;94.75;97483.09;5062607;28;20562;-67
2023/02/13 01:35:16;;;;;;;24.27;20.65;;;;;;;-2.80;95.72;97481.41;5059458;28;20111;-67
2023/02/13 01:37:42;;;;;;;24.15;20.65;;;;;;;-2.81;95.07;97481.41;5062836;28;20116;-67
2023/02/13 01:40:11;;;;;;;27.98;19.63;;;;;;;-2.84;95.33;97486.59;5068392;28;20029;-68
2023/02/13 01:42:37;;;;;;;24.33;20.10;;;;;;;-2.88;95.56;97486.63;5060703;28;20064;-64
2023/02/13 01:45:21;;;;;;;22.35;19.52;;;;;;;-2.93;96.60;97480.66;5059206;28;20502;-66
2023/02/13 01:47:51;;;;;;;22.92;18.90;;;;;;;-2.91;95.76;97488.38;5067041;28;20105;-66
2023/02/13 01:50:19;;;;;;;23.20;17.60;;;;;;;-2.92;95.99;97484.06;5063285;28;20075;-66
2023/02/13 01:52:53;;;;;;;20.92;18.02;;;;;;;-2.92;95.84;97489.22;5060954;28;20033;-66
2023/02/13 01:55:19;;;;;;;21.42;17.13;;;;;;;-2.90;96.26;97485.78;5044233;28;21116;-66
2023/02/13 01:57:50;;;;;;;21.15;18.23;;;;;;;-2.91;95.43;97493.53;5068319;28;20042;-66
2023/02/13 02:00:16;;;;;;;19.83;16.67;;;;;;;-2.91;95.39;97489.22;5067158;28;20064;-73
2023/02/13 02:02:52;;;;;;;19.65;17.05;;;;;;;-2.90;95.43;97490.06;5066663;28;20128;-73
2023/02/13 02:05:20;;;;;;;18.48;16.38;;;;;;;-2.92;95.45;97482.38;5066875;28;20063;-67
2023/02/13 02:07:47;;;;;;;20.85;18.02;;;;;;;-2.94;95.55;97484.13;5060967;28;20037;-67
2023/02/13 02:10:18;;;;;;;19.52;16.42;;;;;;;-2.96;94.69;97488.44;5065469;28;20119;-66
2023/02/13 02:12:53;;;;;;;19.65;16.95;;;;;;;-2.95;95.86;97481.53;5045248;28;20036;-68
2023/02/13 02:15:18;;;;;;;20.33;17.00;;;;;;;-2.96;95.66;97478.13;5063102;28;20021;-67
2023/02/13 02:17:44;;;;;;;19.23;16.83;;;;;;;-2.96;95.70;97474.69;5067391;28;20039;-68
2023/02/13 02:20:41;;;;;;;23.60;17.52;;;;;;;-2.98;95.68;97481.56;5064227;28;20077;-74
2023/02/13 02:23:47;;;;;;;21.17;17.38;;;;;;;-3.01;96.75;97474.72;5001291;28;20121;-61
2023/02/13 02:26:39;;;;;;;18.27;16.02;;;;;;;-3.01;95.68;97479.88;5057720;28;20418;-62
2023/02/13 02:29:22;;;;;;;19.65;15.90;;;;;;;-2.99;95.31;97474.72;5051150;28;20032;-62
2023/02/13 02:32:13;;;;;;;20.80;15.98;;;;;;;-3.01;96.21;97474.72;5064328;28;20033;-61
2023/02/13 02:34:41;;;;;;;21.17;16.40;;;;;;;-3.05;95.85;97473.03;5065420;28;20053;-61
2023/02/13 02:37:23;;;;;;;22.40;17.52;;;;;;;-3.05;96.82;97473.03;5056421;28;20048;-62
2023/02/13 02:40:10;;;;;;;20.58;15.95;;;;;;;-3.07;96.70;97472.19;5064282;28;20060;-61
2023/02/13 02:43:05;;;;;;;20.75;16.85;;;;;;;-3.08;97.19;97473.06;5056979;28;20033;-66
2023/02/13 02:45:52;;;;;;;20.42;15.77;;;;;;;-3.11;96.38;97471.38;5062582;28;20056;-65
2023/02/13 02:51:44;;;;;;;29.20;19.85;;;;;;;-3.11;96.48;97467.94;5061886;28;20048;-66
2023/02/13 03:06:09;;;;;;;26.02;19.00;;;;;;;-3.11;95.94;97466.22;5065828;28;20425;-64
2023/02/13 03:06:12;;;;;;;30.67;22.52;;;;;;;-3.11;96.68;97475.69;5057966;28;20044;-67
2023/02/13 03:14:12;;;;;;;27.60;19.70;;;;;;;-3.13;96.79;97478.25;5059275;28;20043;-68
2023/02/13 03:22:40;;;;;;;21.67;15.93;;;;;;;-3.11;95.78;97480.84;5047030;28;20283;-73
2023/02/13 03:25:33;;;;;;;20.70;16.02;;;;;;;-3.15;95.58;97479.16;5066666;28;20043;-74
2023/02/13 03:31:00;;;;;;;20.05;15.45;;;;;;;-3.19;96.13;97491.19;5062036;28;20517;-74
2023/02/13 03:33:28;;;;;;;23.40;17.20;;;;;;;-3.24;97.14;97488.66;5062652;28;20044;-73
2023/02/13 03:39:21;;;;;;;21.95;16.00;;;;;;;-3.27;96.84;97493.00;5063605;28;20101;-63
2023/02/13 03:41:59;;;;;;;20.98;15.10;;;;;;;-3.29;96.74;97487.84;5061735;28;20033;-62
2023/02/13 03:44:31;;;;;;;26.88;15.15;;;;;;;-3.29;97.45;97492.16;5060499;28;20029;-63
2023/02/13 03:47:00;;;;;;;21.98;17.10;;;;;;;-3.27;97.74;97493.00;5056603;28;20043;-63
2023/02/13 03:52:35;;;;;;;18.55;15.85;;;;;;;-3.35;97.13;97499.06;5066577;28;20094;-63
2023/02/13 04:00:43;;;;;;;26.48;20.50;;;;;;;-3.38;97.00;97493.94;5065810;28;20122;-63
2023/02/13 04:03:30;;;;;;;36.72;23.55;;;;;;;-3.36;97.24;97493.94;5065292;28;20490;-63
2023/02/13 04:06:05;;;;;;;32.88;21.80;;;;;;;-3.40;97.28;97489.66;5062381;28;20032;-63
2023/02/13 04:08:30;;;;;;;35.47;24.73;;;;;;;-3.41;97.57;97487.97;5053231;28;20093;-63
2023/02/13 04:11:11;;;;;;;35.72;23.20;;;;;;;-3.47;98.52;97484.53;5064363;28;20059;-63
2023/02/13 04:13:57;;;;;;;30.63;22.75;;;;;;;-3.49;97.79;97481.13;5062030;28;20041;-63
2023/02/13 04:16:31;;;;;;;31.27;20.92;;;;;;;-3.50;98.96;97484.56;5061065;28;20120;-61
2023/02/13 04:18:59;;;;;;;23.67;19.17;;;;;;;-3.50;97.93;97486.31;5068596;28;20506;-73
2023/02/13 04:21:25;;;;;;;28.75;19.70;;;;;;;-3.45;97.46;97489.69;5061310;28;20052;-73
2023/02/13 04:23:50;;;;;;;25.40;18.77;;;;;;;-3.41;96.97;97481.06;5060809;28;20060;-73
2023/02/13 04:26:19;;;;;;;27.23;21.23;;;;;;;-3.42;97.53;97483.69;5055432;28;20144;-72
2023/02/13 04:28:44;;;;;;;25.35;18.85;;;;;;;-3.46;98.25;97493.97;5067211;28;20036;-72
2023/02/13 04:31:10;;;;;;;33.30;23.55;;;;;;;-3.51;98.67;97479.44;5059984;28;20548;-72
2023/02/13 04:33:35;;;;;;;30.50;21.08;;;;;;;-3.52;98.15;97486.31;5062551;28;20036;-73
2023/02/13 04:36:01;;;;;;;35.42;22.52;;;;;;;-3.51;98.87;97492.31;5046749;28;20050;-67
2023/02/13 04:38:26;;;;;;;46.45;27.70;;;;;;;-3.50;99.69;97487.16;5063467;28;20034;-62
2023/02/13 04:40:52;;;;;;;48.53;32.45;;;;;;;-3.51;99.42;97498.31;5068309;28;20036;-62
2023/02/13 04:43:17;;;;;;;44.90;29.90;;;;;;;-3.49;99.11;97493.16;5057230;28;20056;-62
2023/02/13 04:45:42;;;;;;;49.75;31.63;;;;;;;-3.50;99.05;97499.19;5052739;28;20090;-62
2023/02/13 04:48:08;;;;;;;55.15;36.63;;;;;;;-3.52;99.25;97493.19;5051979;28;20499;-63
2023/02/13 04:50:34;;;;;;;51.05;34.55;;;;;;;-3.51;98.89;97500.88;5068054;28;20222;-62
2023/02/13 04:52:59;;;;;;;52.40;33.38;;;;;;;-3.50;98.29;97497.44;5060455;28;20486;-73
2023/02/13 04:55:26;;;;;;;33.45;25.60;;;;;;;-3.48;98.34;97500.03;5053695;28;20021;-72
2023/02/13 04:57:52;;;;;;;35.88;26.92;;;;;;;-3.47;98.72;97501.72;5057171;28;20032;-67
2023/02/13 05:00:20;;;;;;;35.65;27.23;;;;;;;-3.48;98.49;97497.44;5050003;28;20095;-67
2023/02/13 05:02:45;;;;;;;38.03;27.60;;;;;;;-3.48;98.71;97502.59;5059563;28;20029;-69
2023/02/13 05:05:10;;;;;;;39.35;24.70;;;;;;;-3.51;98.49;97500.88;5058442;28;20508;-69
2023/02/13 05:07:36;;;;;;;33.22;23.65;;;;;;;-3.53;99.29;97500.06;5060767;28;20035;-69
2023/02/13 05:10:01;;;;;;;26.88;20.25;;;;;;;-3.54;99.12;97500.06;5057763;28;20506;-68
2023/02/13 05:12:27;;;;;;;29.27;21.10;;;;;;;-3.59;98.22;97502.69;5055440;28;20115;-69
2023/02/13 05:14:52;;;;;;;28.48;19.83;;;;;;;-3.59;98.73;97500.09;5058671;28;20509;-66
2023/02/13 05:17:17;;;;;;;22.27;18.63;;;;;;;-3.58;99.41;97496.66;5059214;28;20036;-75
2023/02/13 05:19:43;;;;;;;26.13;21.35;;;;;;;-3.59;98.99;97502.69;5050401;28;20056;-75
2023/02/13 05:24:53;;;;;;;26.43;20.20;;;;;;;-3.65;99.38;97497.53;5066323;28;20477;-74
2023/02/13 05:27:18;;;;;;;20.48;17.20;;;;;;;-3.66;100.00;97498.41;5062233;28;20068;-73
2023/02/13 05:29:43;;;;;;;21.63;17.45;;;;;;;-3.66;100.00;97493.25;5058435;28;20044;-73
2023/02/13 05:32:09;;;;;;;18.58;16.67;;;;;;;-3.64;100.00;97499.28;5062803;28;20075;-61
2023/02/13 05:34:34;;;;;;;18.40;16.50;;;;;;;-3.65;100.00;97494.97;5066987;28;20049;-69
2023/02/13 05:37:00;;;;;;;16.30;14.57;;;;;;;-3.63;100.00;97504.41;5059486;28;20491;-66
2023/02/13 05:39:25;;;;;;;18.05;14.15;;;;;;;-3.58;100.00;97498.38;5054932;28;20481;-66
2023/02/13 05:41:50;;;;;;;14.40;12.68;;;;;;;-3.54;100.00;97494.91;5058759;28;20040;-66
2023/02/13 05:44:16;;;;;;;15.30;13.70;;;;;;;-3.46;100.00;97493.16;5065586;28;20094;-66
2023/02/13 05:46:43;;;;;;;15.35;13.70;;;;;;;-3.37;100.00;97494.78;5063304;28;20066;-66
2023/02/13 05:49:10;;;;;;;15.18;13.63;;;;;;;-3.39;100.00;97496.53;5066672;28;20517;-66
2023/02/13 05:51:35;;;;;;;19.35;14.75;;;;;;;-3.42;100.00;97497.41;5053344;28;20033;-68
2023/02/13 05:54:01;;;;;;;16.05;14.18;;;;;;;-3.44;100.00;97504.28;5060817;28;20021;-73
2023/02/13 05:56:26;;;;;;;14.20;12.70;;;;;;;-3.48;100.00;97498.28;5055492;28;20574;-65
2023/02/13 05:58:55;;;;;;;15.65;13.98;;;;;;;-3.54;100.00;97495.75;5061933;28;20410;-65
2023/02/13 06:01:22;;;;;;;18.05;13.63;;;;;;;-3.61;100.00;97496.69;5058063;28;20114;-65
2023/02/13 06:03:47;;;;;;;14.77;13.25;;;;;;;-3.63;100.00;97506.16;5067316;28;20120;-63
2023/02/13 06:06:13;;;;;;;17.48;13.57;;;;;;;-3.67;100.00;97502.72;5059381;28;20140;-64
2023/02/13 06:08:38;;;;;;;18.23;13.52;;;;;;;-3.66;100.00;97503.56;5056949;28;20452;-64
2023/02/13 06:11:04;;;;;;;15.38;13.82;;;;;;;-3.65;100.00;97506.13;5058976;28;20116;-62
2023/02/13 06:13:29;;;;;;;16.88;15.05;;;;;;;-3.65;100.00;97505.28;5068390;28;20037;-70
2023/02/13 06:15:55;;;;;;;15.60;14.02;;;;;;;-3.64;100.00;97509.59;5059824;28;20029;-75
2023/02/13 06:18:20;;;;;;;16.60;14.88;;;;;;;-3.69;100.00;97514.75;5066782;28;20051;-74
2023/02/13 06:20:45;;;;;;;15.88;14.27;;;;;;;-3.71;100.00;97505.31;5059522;28;20029;-75
2023/02/13 06:23:11;;;;;;;20.13;16.27;;;;;;;-3.74;100.00;97509.63;5051817;28;20438;-75
2023/02/13 06:25:36;;;;;;;17.88;15.80;;;;;;;-3.73;100.00;97507.91;5067380;28;20043;-74
2023/02/13 06:28:03;;;;;;;16.23;14.63;;;;;;;-3.72;100.00;97511.34;5053989;28;20052;-73
2023/02/13 06:30:29;;;;;;;15.70;13.77;;;;;;;-3.67;100.00;97518.16;5064621;28;20043;-69
2023/02/13 06:32:54;;;;;;;20.75;17.58;;;;;;;-3.67;100.00;97512.16;5063384;28;20032;-70
2023/02/13 06:35:20;;;;;;;19.85;17.75;;;;;;;-3.66;100.00;97514.72;5066573;28;20067;-69
2023/02/13 06:37:45;;;;;;;17.98;15.98;;;;;;;-3.63;100.00;97519.03;5053344;28;20111;-69
2023/02/13 06:40:12;;;;;;;21.33;19.08;;;;;;;-3.59;100.00;97515.56;5051591;28;20029;-69
2023/02/13 06:42:38;;;;;;;22.27;19.13;;;;;;;-3.52;99.33;97526.69;5065647;28;20037;-69
2023/02/13 06:45:05;;;;;;;20.95;18.85;;;;;;;-3.56;99.15;97523.25;5063509;28;20021;-69
2023/02/13 06:47:30;;;;;;;22.08;18.42;;;;;;;-3.56;100.00;97528.41;5071425;28;20020;-69
2023/02/13 06:49:56;;;;;;;21.73;19.40;;;;;;;-3.56;100.00;97525.81;5071554;28;20055;-70
2023/02/13 06:52:21;;;;;;;19.92;18.02;;;;;;;-3.52;100.00;97526.69;5069959;28;20028;-70
2023/02/13 06:54:46;;;;;;;20.45;18.35;;;;;;;-3.51;99.40;97529.22;5070336;28;20509;-70
2023/02/13 06:57:12;;;;;;;21.70;19.45;;;;;;;-3.51;100.00;97534.38;5070545;28;20531;-69
2023/02/13 06:59:37;;;;;;;20.85;18.70;;;;;;;-3.47;100.00;97530.06;5070283;28;20498;-70
2023/02/13 07:02:02;;;;;;;20.38;16.17;;;;;;;-3.40;100.00;97544.59;5066975;28;20043;-70
2023/02/13 07:04:28;;;;;;;19.10;17.15;;;;;;;-3.33;99.91;97535.13;5070305;28;20044;-70
2023/02/13 07:06:54;;;;;;;22.05;17.77;;;;;;;-3.31;100.00;97541.09;5069582;28;20033;-70
2023/02/13 07:09:20;;;;;;;19.77;16.50;;;;;;;-3.32;99.27;97547.13;5066922;28;20040;-71
2023/02/13 07:11:45;;;;;;;19.30;15.95;;;;;;;-3.28;100.00;97558.28;5070299;28;20024;-71
2023/02/13 07:14:10;;;;;;;20.23;16.70;;;;;;;-3.31;99.75;97559.13;5069724;28;20028;-71
2023/02/13 07:16:36;;;;;;;20.85;17.73;;;;;;;-3.34;99.44;97556.59;5061857;28;20037;-71
2023/02/13 07:19:01;;;;;;;17.25;15.35;;;;;;;-3.34;99.29;97561.75;5061271;28;20543;-71
2023/02/13 07:21:26;;;;;;;16.70;15.07;;;;;;;-3.35;99.95;97563.44;5065945;28;20115;-71
2023/02/13 07:23:52;;;;;;;16.08;14.45;;;;;;;-3.37;100.00;97562.59;5064585;28;20509;-74
2023/02/13 07:26:17;;;;;;;17.15;14.75;;;;;;;-3.39;100.00;97573.81;5058121;28;20075;-74
2023/02/13 07:28:43;;;;;;;16.73;15.13;;;;;;;-3.39;100.00;97572.06;5063505;28;20602;-69
2023/02/13 07:31:08;;;;;;;18.52;15.38;;;;;;;-3.34;99.72;97566.91;5045418;28;20421;-67
2023/02/13 07:33:34;;;;;;;18.58;15.45;;;;;;;-3.29;99.71;97566.88;5068935;28;20047;-67
2023/02/13 07:36:02;;;;;;;16.63;14.80;;;;;;;-3.27;100.00;97575.44;5067071;28;20036;-67
2023/02/13 07:38:31;;;;;;;22.02;16.52;;;;;;;-3.26;98.40;97575.41;5063164;28;20028;-68
2023/02/13 07:41:01;;;;;;;40.65;18.70;;;;;;;-3.17;99.40;97574.50;5057974;28;20059;-68
2023/02/13 07:43:27;;;;;;;21.40;15.98;;;;;;;-3.16;99.13;97571.06;5060516;28;20067;-68
2023/02/13 07:45:56;;;;;;;22.58;18.35;;;;;;;-3.18;99.64;97573.66;5049312;28;20037;-68
2023/02/13 07:48:22;;;;;;;24.25;19.13;;;;;;;-3.17;99.10;97570.22;5062996;28;20032;-65
2023/02/13 07:50:48;;;;;;;21.83;17.38;;;;;;;-3.14;99.18;97576.22;5055362;28;20024;-71
2023/02/13 07:53:13;;;;;;;19.20;17.15;;;;;;;-3.13;99.76;97577.91;5054026;28;20116;-71
2023/02/13 07:55:39;;;;;;;27.70;20.92;;;;;;;-3.11;99.15;97579.59;5054658;28;20025;-70
2023/02/13 07:58:04;;;;;;;60.50;36.33;;;;;;;-3.04;99.94;97583.00;5051113;28;20025;-71
2023/02/13 08:00:30;;;;;;;58.33;36.90;;;;;;;-3.00;99.14;97576.09;5055220;28;20094;-71
2023/02/13 08:02:58;;;;;;;59.20;35.53;;;;;;;-2.93;99.66;97582.91;5062465;28;20049;-69
2023/02/13 08:05:24;;;;;;;49.97;33.55;;;;;;;-2.84;99.34;97581.97;5068077;28;20039;-68
2023/02/13 08:07:49;;;;;;;48.00;33.42;;;;;;;-2.82;98.37;97575.94;5061808;28;20052;-68
2023/02/13 08:12:59;;;;;;;49.63;34.45;;;;;;;-2.79;98.08;97577.63;5069505;28;20098;-67
2023/02/13 08:15:24;;;;;;;47.20;34.63;;;;;;;-2.82;98.98;97580.25;5059990;28;20465;-67
2023/02/13 08:17:50;;;;;;;54.15;35.95;;;;;;;-2.84;98.11;97582.84;5069458;28;20052;-66
2023/02/13 08:20:15;;;;;;;56.20;35.95;;;;;;;-2.82;98.20;97575.09;5058502;28;20020;-67
2023/02/13 08:22:40;;;;;;;59.60;43.65;;;;;;;-2.77;99.04;97579.34;5069367;28;20032;-66
2023/02/13 08:25:07;;;;;;;69.30;52.00;;;;;;;-2.68;98.56;97580.09;5052872;28;20036;-67
2023/02/13 08:27:32;;;;;;;83.47;58.63;;;;;;;-2.60;98.32;97571.44;5059894;28;20074;-67
2023/02/13 08:29:59;;;;;;;86.85;60.72;;;;;;;-2.56;97.63;97576.56;5068593;28;20032;-71
2023/02/13 08:32:25;;;;;;;83.28;57.78;;;;;;;-2.52;98.30;97573.09;5069478;28;20036;-71
2023/02/13 08:34:51;;;;;;;79.55;55.70;;;;;;;-2.54;98.18;97569.66;5068953;28;20059;-71
2023/02/13 08:37:17;;;;;;;72.32;52.80;;;;;;;-2.56;98.92;97567.13;5068969;28;20037;-71
2023/02/13 08:39:43;;;;;;;84.65;61.10;;;;;;;-2.57;99.24;97569.69;5061863;28;20111;-72
2023/02/13 08:42:08;;;;;;;106.43;80.88;;;;;;;-2.38;99.84;97568.63;5063328;28;20421;-71
2023/02/13 08:44:34;;;;;;;116.25;79.88;;;;;;;-1.83;100.00;97563.72;5069702;28;20060;-64
2023/02/13 08:47:02;;;;;;;89.35;62.55;;;;;;;-1.27;98.61;97564.69;5055282;28;20040;-62
2023/02/13 08:49:31;;;;;;;61.53;44.55;;;;;;;-0.76;99.45;97567.31;5057328;28;20062;-71
2023/02/13 08:51:57;;;;;;;45.03;37.25;;;;;;;-0.30;97.86;97567.38;5055605;28;20041;-71
2023/02/13 08:54:22;;;;;;;46.00;36.30;;;;;;;0.19;96.56;97565.56;5051316;28;20525;-71
2023/02/13 08:56:48;;;;;;;32.78;27.23;;;;;;;0.57;94.42;97558.72;5068999;28;20094;-72
2023/02/13 08:59:13;;;;;;;28.42;22.00;;;;;;;1.04;92.13;97559.38;5069333;28;20043;-72
2023/02/13 09:01:38;;;;;;;20.30;18.13;;;;;;;1.46;89.95;97556.59;5068463;28;20029;-72
2023/02/13 09:04:04;;;;;;;23.35;20.02;;;;;;;1.76;88.16;97553.22;5069492;28;20071;-71
2023/02/13 09:06:29;;;;;;;20.70;16.48;;;;;;;2.01;86.94;97558.59;5068511;28;20052;-67
2023/02/13 09:08:55;;;;;;;17.45;14.10;;;;;;;2.24;85.03;97563.13;5068975;28;20036;-67
2023/02/13 09:11:22;;;;;;;16.50;11.77;;;;;;;2.50;83.48;97556.31;5068721;28;20175;-67
2023/02/13 09:13:48;;;;;;;10.70;9.25;;;;;;;2.79;81.72;97557.19;5069300;28;20047;-68
2023/02/13 09:16:14;;;;;;;8.80;7.93;;;;;;;3.06;79.69;97561.53;5068391;28;20059;-67
2023/02/13 09:18:40;;;;;;;11.80;9.65;;;;;;;3.36;75.45;97554.47;5069062;28;20075;-67
2023/02/13 09:21:08;;;;;;;14.27;12.48;;;;;;;3.54;73.23;97553.03;5068398;28;20036;-66
2023/02/13 09:23:35;;;;;;;15.20;11.00;;;;;;;3.72;70.02;97553.28;5063311;28;20048;-71
2023/02/13 09:26:02;;;;;;;13.70;12.27;;;;;;;3.97;68.74;97558.47;5069202;28;20618;-66
2023/02/13 09:28:32;;;;;;;12.93;9.43;;;;;;;4.31;68.33;97553.78;5068147;28;20170;-66
2023/02/13 09:30:57;;;;;;;8.90;7.20;;;;;;;4.68;68.58;97544.56;5058739;28;20164;-66
2023/02/13 09:33:24;;;;;;;19.92;15.57;;;;;;;5.08;66.79;97547.34;5062596;28;20029;-66
2023/02/13 09:35:49;;;;;;;14.60;11.70;;;;;;;5.36;63.76;97547.97;5063971;28;20076;-66
2023/02/13 09:38:15;;;;;;;13.18;10.88;;;;;;;5.65;64.01;97545.91;5069187;28;20632;-66
2023/02/13 09:40:52;;;;;;;9.43;7.50;;;;;;;5.92;64.01;97543.00;5066926;28;20040;-67
2023/02/13 09:43:20;;;;;;;7.70;7.00;;;;;;;6.19;63.10;97545.31;5062566;28;20041;-66
2023/02/13 09:45:46;;;;;;;11.32;6.78;;;;;;;6.36;63.18;97536.72;5068762;28;20068;-71
2023/02/13 09:48:36;;;;;;;9.75;7.47;;;;;;;6.55;62.81;97544.56;5052655;28;20087;-72
2023/02/13 09:51:03;;;;;;;11.77;10.55;;;;;;;6.88;62.00;97544.75;5059617;28;20067;-72
2023/02/13 09:53:28;;;;;;;11.10;9.77;;;;;;;7.30;60.86;97540.13;5058742;28;20041;-74
2023/02/13 09:56:09;;;;;;;7.72;6.22;;;;;;;7.65;55.75;97543.66;5072500;28;20396;-71
2023/02/13 09:58:43;;;;;;;8.27;6.72;;;;;;;7.96;51.95;97545.56;5070531;28;20499;-72
2023/02/13 10:01:38;;;;;;;9.23;7.55;;;;;;;7.88;50.67;97545.94;5071565;28;20502;-73
2023/02/13 10:04:29;;;;;;;8.38;7.35;;;;;;;8.08;51.70;97546.69;5054792;28;20067;-73
2023/02/13 10:07:14;;;;;;;8.82;6.97;;;;;;;8.50;50.26;97541.03;5070547;28;20541;-72
2023/02/13 10:10:00;;;;;;;8.90;8.10;;;;;;;8.79;50.69;97542.06;5071784;28;20071;-73
2023/02/13 10:12:29;;;;;;;11.85;10.63;;;;;;;8.81;50.81;97542.81;5062152;28;20552;-72
2023/02/13 10:15:19;;;;;;;12.00;8.05;;;;;;;8.84;51.41;97540.00;5071264;28;20048;-72
2023/02/13 10:17:49;;;;;;;7.40;6.57;;;;;;;8.63;50.37;97536.81;5053518;28;20036;-72
2023/02/13 10:20:38;;;;;;;9.52;6.75;;;;;;;8.50;49.33;97547.09;5072091;28;20028;-72
2023/02/13 10:23:27;;;;;;;5.97;5.43;;;;;;;8.35;47.90;97543.50;5067222;28;20048;-64
2023/02/13 10:25:59;;;;;;;7.78;5.28;;;;;;;8.46;49.01;97540.31;5061147;28;20061;-64
2023/02/13 10:28:29;;;;;;;5.28;4.78;;;;;;;8.63;47.99;97533.31;5071008;28;20032;-64
2023/02/13 10:31:01;;;;;;;6.15;5.57;;;;;;;8.75;46.85;97543.16;5071974;28;20513;-64
2023/02/13 10:33:42;;;;;;;9.57;7.18;;;;;;;8.74;47.39;97538.84;5071151;28;20107;-64
2023/02/13 10:36:17;;;;;;;9.13;8.18;;;;;;;8.97;47.39;97536.72;5071273;28;20040;-65
2023/02/13 10:38:51;;;;;;;;;;;;;;;9.31;47.43;97529.50;5072019;28;20033;-65
2023/02/13 10:41:24;;;;;;;6.47;5.32;;;;;;;9.56;46.38;97525.44;5052428;28;20390;-71
2023/02/13 10:44:12;;;;;;;6.25;5.65;;;;;;;9.80;44.61;97517.88;5066065;28;20563;-62
2023/02/13 10:46:59;;;;;;;4.68;4.28;;;;;;;10.06;44.53;97504.94;5060296;28;20053;-62
2023/02/13 10:49:41;;;;;;;4.18;3.78;;;;;;;10.26;44.30;97511.59;5057697;28;20104;-62
2023/02/13 10:52:19;;;;;;;5.28;4.50;;;;;;;10.23;43.19;97511.78;5052569;28;20502;-62
2023/02/13 10:54:51;;;;;;;7.65;5.50;;;;;;;10.24;43.53;97504.75;5070674;28;20498;-62
2023/02/13 10:58:01;;;;;;;7.13;5.30;;;;;;;10.24;41.77;97500.31;5069800;28;20075;-62
2023/02/13 11:00:30;;;;;;;8.45;4.53;;;;;;;10.45;40.95;97497.31;5025225;28;20057;-63
2023/02/13 11:02:56;;;;;;;7.30;4.95;;;;;;;10.45;41.69;97490.25;5064224;28;20039;-69
2023/02/13 11:05:37;;;;;;;7.75;5.97;;;;;;;10.98;41.67;97493.97;5058896;28;20032;-69
2023/02/13 11:08:11;;;;;;;11.25;6.10;;;;;;;11.00;41.32;97485.00;5070965;28;20521;-70
2023/02/13 11:10:39;;;;;;;6.63;5.32;;;;;;;11.36;40.82;97484.47;5070603;28;20035;-69
2023/02/13 11:13:18;;;;;;;5.88;5.13;;;;;;;11.50;39.48;97486.19;5062699;28;20033;-69
2023/02/13 11:16:01;;;;;;;7.95;5.22;;;;;;;11.71;40.32;97484.72;5056936;28;20060;-69
2023/02/13 11:18:29;;;;;;;5.68;5.05;;;;;;;12.10;39.33;97481.25;5063141;28;20043;-72
2023/02/13 11:21:07;;;;;;;6.70;5.50;;;;;;;12.17;38.99;97477.22;5070815;28;20111;-64
2023/02/13 11:23:37;;;;;;;8.07;5.70;;;;;;;12.39;38.54;97475.69;5064242;28;20035;-63
2023/02/13 11:26:08;;;;;;;6.78;5.93;;;;;;;12.29;36.63;97481.66;5070683;28;20067;-63
2023/02/13 11:28:53;;;;;;;6.68;5.57;;;;;;;12.13;37.23;97476.59;5069762;28;20033;-63
2023/02/13 11:31:29;;;;;;;9.73;6.53;;;;;;;12.58;37.73;97475.22;5070306;28;20410;-63
2023/02/13 11:33:56;;;;;;;7.88;5.85;;;;;;;13.01;38.83;97474.72;5050715;28;20314;-64
2023/02/13 11:36:33;;;;;;;6.32;5.65;;;;;;;12.99;37.62;97476.63;5068614;28;20695;-63
2023/02/13 11:39:06;;;;;;;5.97;4.72;;;;;;;12.89;36.91;97476.47;5070677;28;20064;-70
2023/02/13 11:41:41;;;;;;;6.13;5.50;;;;;;;13.03;37.58;97479.91;5067785;28;20035;-73
2023/02/13 11:44:20;;;;;;;6.30;5.72;;;;;;;13.23;35.89;97477.59;5070224;28;20079;-73
2023/02/13 11:46:50;;;;;;;8.10;5.60;;;;;;;12.85;35.58;97476.81;5070089;28;20024;-73
2023/02/13 11:49:20;;;;;;;7.05;5.82;;;;;;;12.91;36.71;97476.38;5069964;28;20465;-74
2023/02/13 11:51:48;;;;;;;7.00;5.50;;;;;;;13.44;35.55;97470.72;5069935;28;20056;-74
2023/02/13 11:54:40;;;;;;;7.53;5.40;;;;;;;13.54;34.74;97465.56;5068390;28;20028;-73
2023/02/13 11:57:19;;;;;;;5.82;5.07;;;;;;;13.42;33.78;97464.66;5067999;28;20035;-73
2023/02/13 11:59:46;;;;;;;5.43;4.50;;;;;;;13.78;34.77;97455.84;5068937;28;20406;-70
2023/02/13 12:02:15;;;;;;;7.90;4.78;;;;;;;14.02;32.79;97456.56;5069248;28;20017;-70
2023/02/13 12:04:41;;;;;;;5.95;5.35;;;;;;;13.64;33.31;97449.81;5066529;28;20041;-70
2023/02/13 12:07:28;;;;;;;6.25;4.60;;;;;;;13.51;32.54;97449.94;5067625;28;20036;-71
2023/02/13 12:10:04;;;;;;;5.32;3.90;;;;;;;13.56;32.08;97442.47;5067159;28;20032;-71
2023/02/13 12:12:47;;;;;;;7.38;4.55;;;;;;;13.56;32.32;97439.81;5069552;28;20028;-70
2023/02/13 12:15:32;;;;;;;5.95;5.20;;;;;;;14.06;31.89;97435.16;5069171;28;20043;-65
2023/02/13 12:18:03;;;;;;;;;;;;;;;13.67;32.68;97435.50;5067628;28;20040;-63